sensor_id;sensor_type;location;lat;lon;timestamp;P1;durP1;ratioP1;P2;durP2;ratioP2
49366;SDS011;35245;52.026;8.540;2023-07-28T00:01:15;10.27;;;8.98;;
49366;SDS011;35245;52.026;8.540;2023-07-28T00:03:42;9.52;;;7.97;;
49366;SDS011;35245;52.026;8.540;2023-07-28T00:06:09;11.70;;;9.38;;
49366;SDS011;35245;52.026;8.540;2023-07-28T00:08:36;9.90;;;9.00;;
49366;SDS011;35245;52.026;8.540;2023-07-28T00:11:03;8.98;;;8.07;;
49366;SDS011;35245;52.026;8.540;2023-07-28T00:13:35;8.45;;;7.65;;
49366;SDS011;35245;52.026;8.540;2023-07-28T00:16:04;8.45;;;7.50;;
49366;SDS011;35245;52.026;8.540;2023-07-28T00:18:31;9.35;;;7.47;;
49366;SDS011;35245;52.026;8.540;2023-07-28T00:20:58;8.13;;;7.20;;
49366;SDS011;35245;52.026;8.540;2023-07-28T00:23:26;7.72;;;6.93;;
49366;SDS011;35245;52.026;8.540;2023-07-28T00:25:54;8.30;;;7.40;;
49366;SDS011;35245;52.026;8.540;2023-07-28T00:28:21;8.75;;;7.85;;
49366;SDS011;35245;52.026;8.540;2023-07-28T00:30:48;8.88;;;7.88;;
49366;SDS011;35245;52.026;8.540;2023-07-28T00:33:17;9.50;;;8.50;;
49366;SDS011;35245;52.026;8.540;2023-07-28T00:35:44;9.13;;;7.68;;
49366;SDS011;35245;52.026;8.540;2023-07-28T00:38:11;8.18;;;7.35;;
49366;SDS011;35245;52.026;8.540;2023-07-28T00:40:38;9.75;;;8.43;;
49366;SDS011;35245;52.026;8.540;2023-07-28T00:43:05;10.10;;;7.60;;
49366;SDS011;35245;52.026;8.540;2023-07-28T00:45:33;9.68;;;8.68;;
49366;SDS011;35245;52.026;8.540;2023-07-28T00:48:01;9.70;;;8.00;;
49366;SDS011;35245;52.026;8.540;2023-07-28T00:50:31;10.45;;;8.48;;
49366;SDS011;35245;52.026;8.540;2023-07-28T00:52:58;10.70;;;9.13;;
49366;SDS011;35245;52.026;8.540;2023-07-28T00:55:25;9.57;;;8.48;;
49366;SDS011;35245;52.026;8.540;2023-07-28T00:57:52;10.07;;;8.98;;
49366;SDS011;35245;52.026;8.540;2023-07-28T01:00:19;10.15;;;9.15;;
49366;SDS011;35245;52.026;8.540;2023-07-28T01:02:46;10.88;;;9.15;;
49366;SDS011;35245;52.026;8.540;2023-07-28T01:05:14;12.25;;;10.20;;
49366;SDS011;35245;52.026;8.540;2023-07-28T01:07:43;11.48;;;10.15;;
49366;SDS011;35245;52.026;8.540;2023-07-28T01:10:22;10.88;;;9.77;;
49366;SDS011;35245;52.026;8.540;2023-07-28T01:12:52;11.60;;;10.38;;
49366;SDS011;35245;52.026;8.540;2023-07-28T01:15:19;14.50;;;11.43;;
49366;SDS011;35245;52.026;8.540;2023-07-28T01:17:46;13.95;;;10.75;;
49366;SDS011;35245;52.026;8.540;2023-07-28T01:20:13;11.98;;;10.25;;
49366;SDS011;35245;52.026;8.540;2023-07-28T01:22:48;12.65;;;11.35;;
49366;SDS011;35245;52.026;8.540;2023-07-28T01:25:32;11.18;;;9.98;;
49366;SDS011;35245;52.026;8.540;2023-07-28T01:28:14;12.80;;;11.05;;
49366;SDS011;35245;52.026;8.540;2023-07-28T01:30:43;12.50;;;10.60;;
49366;SDS011;35245;52.026;8.540;2023-07-28T01:33:11;12.48;;;10.48;;
49366;SDS011;35245;52.026;8.540;2023-07-28T01:35:38;13.27;;;11.77;;
49366;SDS011;35245;52.026;8.540;2023-07-28T01:38:05;11.60;;;10.38;;
49366;SDS011;35245;52.026;8.540;2023-07-28T01:40:32;10.13;;;8.75;;
49366;SDS011;35245;52.026;8.540;2023-07-28T01:43:00;11.20;;;9.43;;
49366;SDS011;35245;52.026;8.540;2023-07-28T01:45:28;13.25;;;11.35;;
49366;SDS011;35245;52.026;8.540;2023-07-28T01:47:55;12.68;;;11.38;;
49366;SDS011;35245;52.026;8.540;2023-07-28T01:50:22;14.55;;;13.05;;
49366;SDS011;35245;52.026;8.540;2023-07-28T01:52:49;14.15;;;12.40;;
49366;SDS011;35245;52.026;8.540;2023-07-28T01:55:17;14.38;;;12.82;;
49366;SDS011;35245;52.026;8.540;2023-07-28T01:57:49;13.93;;;12.45;;
49366;SDS011;35245;52.026;8.540;2023-07-28T02:00:21;13.88;;;12.43;;
49366;SDS011;35245;52.026;8.540;2023-07-28T02:02:50;12.45;;;11.15;;
49366;SDS011;35245;52.026;8.540;2023-07-28T02:05:18;11.98;;;10.77;;
49366;SDS011;35245;52.026;8.540;2023-07-28T02:07:46;12.43;;;11.10;;
49366;SDS011;35245;52.026;8.540;2023-07-28T02:10:13;12.93;;;11.63;;
49366;SDS011;35245;52.026;8.540;2023-07-28T02:12:40;14.55;;;12.38;;
49366;SDS011;35245;52.026;8.540;2023-07-28T02:15:08;13.20;;;11.80;;
49366;SDS011;35245;52.026;8.540;2023-07-28T02:17:35;14.27;;;12.43;;
49366;SDS011;35245;52.026;8.540;2023-07-28T02:20:04;15.25;;;13.65;;
49366;SDS011;35245;52.026;8.540;2023-07-28T02:22:35;14.00;;;12.50;;
49366;SDS011;35245;52.026;8.540;2023-07-28T02:25:03;14.65;;;12.93;;
49366;SDS011;35245;52.026;8.540;2023-07-28T02:27:31;15.05;;;13.13;;
49366;SDS011;35245;52.026;8.540;2023-07-28T02:29:58;13.95;;;12.23;;
49366;SDS011;35245;52.026;8.540;2023-07-28T02:32:25;14.18;;;12.63;;
49366;SDS011;35245;52.026;8.540;2023-07-28T02:34:53;16.52;;;12.82;;
49366;SDS011;35245;52.026;8.540;2023-07-28T02:37:22;13.30;;;11.43;;
49366;SDS011;35245;52.026;8.540;2023-07-28T02:39:49;13.20;;;11.52;;
49366;SDS011;35245;52.026;8.540;2023-07-28T02:42:16;12.95;;;11.65;;
49366;SDS011;35245;52.026;8.540;2023-07-28T02:44:43;13.70;;;12.30;;
49366;SDS011;35245;52.026;8.540;2023-07-28T02:47:10;14.35;;;12.88;;
49366;SDS011;35245;52.026;8.540;2023-07-28T02:49:37;14.00;;;12.60;;
49366;SDS011;35245;52.026;8.540;2023-07-28T02:52:07;15.68;;;13.85;;
49366;SDS011;35245;52.026;8.540;2023-07-28T02:54:35;13.43;;;12.07;;
49366;SDS011;35245;52.026;8.540;2023-07-28T02:57:03;14.43;;;13.02;;
49366;SDS011;35245;52.026;8.540;2023-07-28T02:59:30;13.93;;;12.45;;
49366;SDS011;35245;52.026;8.540;2023-07-28T03:01:57;13.23;;;11.82;;
49366;SDS011;35245;52.026;8.540;2023-07-28T03:04:25;13.85;;;10.77;;
49366;SDS011;35245;52.026;8.540;2023-07-28T03:06:52;12.45;;;11.15;;
49366;SDS011;35245;52.026;8.540;2023-07-28T03:09:19;12.55;;;11.13;;
49366;SDS011;35245;52.026;8.540;2023-07-28T03:11:47;14.18;;;11.65;;
49366;SDS011;35245;52.026;8.540;2023-07-28T03:14:15;13.73;;;11.55;;
49366;SDS011;35245;52.026;8.540;2023-07-28T03:16:42;11.95;;;10.48;;
49366;SDS011;35245;52.026;8.540;2023-07-28T03:19:09;14.75;;;11.20;;
49366;SDS011;35245;52.026;8.540;2023-07-28T03:21:36;11.20;;;10.00;;
49366;SDS011;35245;52.026;8.540;2023-07-28T03:24:03;12.90;;;9.85;;
49366;SDS011;35245;52.026;8.540;2023-07-28T03:26:31;13.38;;;10.77;;
49366;SDS011;35245;52.026;8.540;2023-07-28T03:28:59;11.77;;;10.55;;
49366;SDS011;35245;52.026;8.540;2023-07-28T03:31:26;11.45;;;10.27;;
49366;SDS011;35245;52.026;8.540;2023-07-28T03:33:54;12.75;;;10.65;;
49366;SDS011;35245;52.026;8.540;2023-07-28T03:36:21;13.35;;;10.60;;
49366;SDS011;35245;52.026;8.540;2023-07-28T03:38:48;12.13;;;10.88;;
49366;SDS011;35245;52.026;8.540;2023-07-28T03:41:15;14.30;;;11.60;;
49366;SDS011;35245;52.026;8.540;2023-07-28T03:43:42;15.07;;;12.40;;
49366;SDS011;35245;52.026;8.540;2023-07-28T03:46:11;15.00;;;11.57;;
49366;SDS011;35245;52.026;8.540;2023-07-28T03:48:38;18.40;;;12.73;;
49366;SDS011;35245;52.026;8.540;2023-07-28T03:51:05;16.92;;;13.25;;
49366;SDS011;35245;52.026;8.540;2023-07-28T03:53:32;17.58;;;14.52;;
49366;SDS011;35245;52.026;8.540;2023-07-28T03:56:00;17.27;;;13.82;;
49366;SDS011;35245;52.026;8.540;2023-07-28T03:58:29;17.90;;;14.32;;
49366;SDS011;35245;52.026;8.540;2023-07-28T04:00:56;16.42;;;14.23;;
49366;SDS011;35245;52.026;8.540;2023-07-28T04:03:25;17.33;;;14.35;;
49366;SDS011;35245;52.026;8.540;2023-07-28T04:05:52;19.88;;;14.68;;
49366;SDS011;35245;52.026;8.540;2023-07-28T04:08:19;18.90;;;14.95;;
49366;SDS011;35245;52.026;8.540;2023-07-28T04:10:46;18.02;;;14.45;;
49366;SDS011;35245;52.026;8.540;2023-07-28T04:13:13;15.90;;;14.05;;
49366;SDS011;35245;52.026;8.540;2023-07-28T04:15:40;17.02;;;15.23;;
49366;SDS011;35245;52.026;8.540;2023-07-28T04:18:07;16.83;;;15.02;;
49366;SDS011;35245;52.026;8.540;2023-07-28T04:20:36;17.13;;;15.18;;
49366;SDS011;35245;52.026;8.540;2023-07-28T04:23:03;18.80;;;15.52;;
49366;SDS011;35245;52.026;8.540;2023-07-28T04:25:30;21.17;;;16.45;;
49366;SDS011;35245;52.026;8.540;2023-07-28T04:27:57;19.40;;;16.17;;
49366;SDS011;35245;52.026;8.540;2023-07-28T04:30:24;20.60;;;16.92;;
49366;SDS011;35245;52.026;8.540;2023-07-28T04:32:52;21.52;;;17.55;;
49366;SDS011;35245;52.026;8.540;2023-07-28T04:35:19;18.63;;;16.33;;
49366;SDS011;35245;52.026;8.540;2023-07-28T04:37:48;22.33;;;17.33;;
49366;SDS011;35245;52.026;8.540;2023-07-28T04:40:15;18.92;;;16.92;;
49366;SDS011;35245;52.026;8.540;2023-07-28T04:42:42;22.33;;;19.02;;
49366;SDS011;35245;52.026;8.540;2023-07-28T04:45:10;20.17;;;16.45;;
49366;SDS011;35245;52.026;8.540;2023-07-28T04:47:37;21.13;;;16.70;;
49366;SDS011;35245;52.026;8.540;2023-07-28T04:50:04;23.38;;;17.83;;
49366;SDS011;35245;52.026;8.540;2023-07-28T04:52:32;20.88;;;17.88;;
49366;SDS011;35245;52.026;8.540;2023-07-28T04:55:00;19.92;;;17.83;;
49366;SDS011;35245;52.026;8.540;2023-07-28T04:57:28;25.98;;;19.42;;
49366;SDS011;35245;52.026;8.540;2023-07-28T04:59:55;21.23;;;18.17;;
49366;SDS011;35245;52.026;8.540;2023-07-28T05:02:22;23.20;;;18.77;;
49366;SDS011;35245;52.026;8.540;2023-07-28T05:04:49;20.92;;;18.15;;
49366;SDS011;35245;52.026;8.540;2023-07-28T05:07:16;20.02;;;17.10;;
49366;SDS011;35245;52.026;8.540;2023-07-28T05:09:43;21.90;;;17.33;;
49366;SDS011;35245;52.026;8.540;2023-07-28T05:12:12;20.75;;;16.25;;
49366;SDS011;35245;52.026;8.540;2023-07-28T05:14:39;18.17;;;16.20;;
49366;SDS011;35245;52.026;8.540;2023-07-28T05:17:06;20.83;;;17.80;;
49366;SDS011;35245;52.026;8.540;2023-07-28T05:19:34;21.98;;;17.30;;
49366;SDS011;35245;52.026;8.540;2023-07-28T05:22:01;19.40;;;17.05;;
49366;SDS011;35245;52.026;8.540;2023-07-28T05:24:28;18.42;;;16.10;;
49366;SDS011;35245;52.026;8.540;2023-07-28T05:26:55;20.10;;;16.02;;
49366;SDS011;35245;52.026;8.540;2023-07-28T05:29:24;17.48;;;15.65;;
49366;SDS011;35245;52.026;8.540;2023-07-28T05:31:51;17.92;;;15.48;;
49366;SDS011;35245;52.026;8.540;2023-07-28T05:34:18;17.38;;;15.52;;
49366;SDS011;35245;52.026;8.540;2023-07-28T05:36:45;17.80;;;15.82;;
49366;SDS011;35245;52.026;8.540;2023-07-28T05:39:12;17.80;;;15.85;;
49366;SDS011;35245;52.026;8.540;2023-07-28T05:41:40;18.08;;;15.90;;
49366;SDS011;35245;52.026;8.540;2023-07-28T05:44:07;17.02;;;15.18;;
49366;SDS011;35245;52.026;8.540;2023-07-28T05:46:35;17.98;;;16.10;;
49366;SDS011;35245;52.026;8.540;2023-07-28T05:49:02;17.73;;;15.82;;
49366;SDS011;35245;52.026;8.540;2023-07-28T05:51:30;19.85;;;16.48;;
49366;SDS011;35245;52.026;8.540;2023-07-28T05:53:57;18.02;;;16.10;;
49366;SDS011;35245;52.026;8.540;2023-07-28T05:56:24;17.25;;;15.52;;
49366;SDS011;35245;52.026;8.540;2023-07-28T05:58:51;18.50;;;16.50;;
49366;SDS011;35245;52.026;8.540;2023-07-28T06:01:19;18.52;;;15.95;;
49366;SDS011;35245;52.026;8.540;2023-07-28T06:03:47;18.35;;;16.40;;
49366;SDS011;35245;52.026;8.540;2023-07-28T06:06:15;18.95;;;16.95;;
49366;SDS011;35245;52.026;8.540;2023-07-28T06:08:42;19.27;;;17.27;;
49366;SDS011;35245;52.026;8.540;2023-07-28T06:11:09;20.25;;;16.63;;
49366;SDS011;35245;52.026;8.540;2023-07-28T06:13:36;19.73;;;17.73;;
49366;SDS011;35245;52.026;8.540;2023-07-28T06:16:03;19.00;;;16.58;;
49366;SDS011;35245;52.026;8.540;2023-07-28T06:18:30;19.23;;;17.20;;
49366;SDS011;35245;52.026;8.540;2023-07-28T06:20:59;17.35;;;15.52;;
49366;SDS011;35245;52.026;8.540;2023-07-28T06:23:26;19.50;;;17.60;;
49366;SDS011;35245;52.026;8.540;2023-07-28T06:25:53;19.45;;;16.15;;
49366;SDS011;35245;52.026;8.540;2023-07-28T06:28:20;18.60;;;16.35;;
49366;SDS011;35245;52.026;8.540;2023-07-28T06:30:52;20.02;;;17.02;;
49366;SDS011;35245;52.026;8.540;2023-07-28T06:33:20;18.33;;;16.27;;
49366;SDS011;35245;52.026;8.540;2023-07-28T06:35:47;23.50;;;17.80;;
49366;SDS011;35245;52.026;8.540;2023-07-28T06:38:16;18.83;;;16.92;;
49366;SDS011;35245;52.026;8.540;2023-07-28T06:40:43;18.88;;;15.32;;
49366;SDS011;35245;52.026;8.540;2023-07-28T06:43:10;20.48;;;16.88;;
49366;SDS011;35245;52.026;8.540;2023-07-28T06:45:37;18.13;;;15.50;;
49366;SDS011;35245;52.026;8.540;2023-07-28T06:48:04;16.20;;;14.10;;
49366;SDS011;35245;52.026;8.540;2023-07-28T06:50:31;18.15;;;14.65;;
49366;SDS011;35245;52.026;8.540;2023-07-28T06:52:59;18.38;;;14.05;;
49366;SDS011;35245;52.026;8.540;2023-07-28T06:55:27;14.85;;;13.32;;
49366;SDS011;35245;52.026;8.540;2023-07-28T06:57:54;15.65;;;13.07;;
49366;SDS011;35245;52.026;8.540;2023-07-28T07:00:21;13.68;;;12.27;;
49366;SDS011;35245;52.026;8.540;2023-07-28T07:02:49;12.43;;;11.10;;
49366;SDS011;35245;52.026;8.540;2023-07-28T07:05:16;14.02;;;11.63;;
49366;SDS011;35245;52.026;8.540;2023-07-28T07:07:43;13.27;;;11.60;;
49366;SDS011;35245;52.026;8.540;2023-07-28T07:10:10;13.23;;;11.82;;
49366;SDS011;35245;52.026;8.540;2023-07-28T07:12:39;12.93;;;11.52;;
49366;SDS011;35245;52.026;8.540;2023-07-28T07:15:07;14.20;;;12.70;;
49366;SDS011;35245;52.026;8.540;2023-07-28T07:17:36;13.57;;;12.18;;
49366;SDS011;35245;52.026;8.540;2023-07-28T07:20:05;15.20;;;12.82;;
49366;SDS011;35245;52.026;8.540;2023-07-28T07:22:35;15.68;;;13.18;;
49366;SDS011;35245;52.026;8.540;2023-07-28T07:25:03;15.00;;;12.93;;
49366;SDS011;35245;52.026;8.540;2023-07-28T07:27:32;13.52;;;12.05;;
49366;SDS011;35245;52.026;8.540;2023-07-28T07:30:00;15.20;;;11.30;;
49366;SDS011;35245;52.026;8.540;2023-07-28T07:32:29;13.75;;;10.73;;
49366;SDS011;35245;52.026;8.540;2023-07-28T07:34:56;12.32;;;10.60;;
49366;SDS011;35245;52.026;8.540;2023-07-28T07:37:23;12.98;;;10.88;;
49366;SDS011;35245;52.026;8.540;2023-07-28T07:39:50;13.85;;;10.85;;
49366;SDS011;35245;52.026;8.540;2023-07-28T07:42:17;12.63;;;11.15;;
49366;SDS011;35245;52.026;8.540;2023-07-28T07:44:44;11.98;;;10.10;;
49366;SDS011;35245;52.026;8.540;2023-07-28T07:47:13;15.32;;;10.02;;
49366;SDS011;35245;52.026;8.540;2023-07-28T07:49:41;11.63;;;9.85;;
49366;SDS011;35245;52.026;8.540;2023-07-28T07:52:09;12.30;;;10.35;;
49366;SDS011;35245;52.026;8.540;2023-07-28T07:54:36;12.07;;;10.18;;
49366;SDS011;35245;52.026;8.540;2023-07-28T07:57:04;13.02;;;9.40;;
49366;SDS011;35245;52.026;8.540;2023-07-28T07:59:32;13.45;;;10.68;;
49366;SDS011;35245;52.026;8.540;2023-07-28T08:01:59;12.35;;;9.68;;
49366;SDS011;35245;52.026;8.540;2023-07-28T08:04:29;10.82;;;9.70;;
49366;SDS011;35245;52.026;8.540;2023-07-28T08:06:57;11.65;;;9.73;;
49366;SDS011;35245;52.026;8.540;2023-07-28T08:09:24;11.73;;;9.00;;
49366;SDS011;35245;52.026;8.540;2023-07-28T08:11:51;10.35;;;9.18;;
49366;SDS011;35245;52.026;8.540;2023-07-28T08:14:19;10.15;;;8.80;;
49366;SDS011;35245;52.026;8.540;2023-07-28T08:16:46;11.43;;;8.70;;
49366;SDS011;35245;52.026;8.540;2023-07-28T08:19:14;10.32;;;8.32;;
49366;SDS011;35245;52.026;8.540;2023-07-28T08:21:42;9.73;;;7.78;;
49366;SDS011;35245;52.026;8.540;2023-07-28T08:24:10;10.63;;;7.93;;
49366;SDS011;35245;52.026;8.540;2023-07-28T08:26:37;8.48;;;7.50;;
49366;SDS011;35245;52.026;8.540;2023-07-28T08:29:04;8.93;;;7.57;;
49366;SDS011;35245;52.026;8.540;2023-07-28T08:31:32;9.43;;;7.40;;
49366;SDS011;35245;52.026;8.540;2023-07-28T08:33:59;13.52;;;6.75;;
49366;SDS011;35245;52.026;8.540;2023-07-28T08:36:26;7.70;;;6.47;;
49366;SDS011;35245;52.026;8.540;2023-07-28T08:38:54;12.80;;;6.88;;
49366;SDS011;35245;52.026;8.540;2023-07-28T08:41:22;8.95;;;6.70;;
49366;SDS011;35245;52.026;8.540;2023-07-28T08:43:49;10.98;;;6.32;;
49366;SDS011;35245;52.026;8.540;2023-07-28T08:46:17;6.78;;;5.50;;
49366;SDS011;35245;52.026;8.540;2023-07-28T08:48:44;8.73;;;5.70;;
49366;SDS011;35245;52.026;8.540;2023-07-28T08:51:12;10.35;;;6.63;;
49366;SDS011;35245;52.026;8.540;2023-07-28T08:53:39;7.78;;;6.60;;
49366;SDS011;35245;52.026;8.540;2023-07-28T08:56:08;6.38;;;5.68;;
49366;SDS011;35245;52.026;8.540;2023-07-28T08:58:34;8.52;;;6.82;;
49366;SDS011;35245;52.026;8.540;2023-07-28T09:01:02;8.68;;;6.30;;
49366;SDS011;35245;52.026;8.540;2023-07-28T09:03:30;9.23;;;5.93;;
49366;SDS011;35245;52.026;8.540;2023-07-28T09:05:59;7.30;;;6.25;;
49366;SDS011;35245;52.026;8.540;2023-07-28T09:08:28;7.82;;;6.78;;
49366;SDS011;35245;52.026;8.540;2023-07-28T09:10:57;7.63;;;6.10;;
49366;SDS011;35245;52.026;8.540;2023-07-28T09:13:36;11.25;;;6.47;;
49366;SDS011;35245;52.026;8.540;2023-07-28T09:16:15;7.45;;;6.22;;
49366;SDS011;35245;52.026;8.540;2023-07-28T09:18:44;7.50;;;5.75;;
49366;SDS011;35245;52.026;8.540;2023-07-28T09:21:15;9.70;;;5.78;;
49366;SDS011;35245;52.026;8.540;2023-07-28T09:23:46;9.70;;;6.68;;
49366;SDS011;35245;52.026;8.540;2023-07-28T09:26:13;7.68;;;6.15;;
49366;SDS011;35245;52.026;8.540;2023-07-28T09:28:42;11.27;;;6.07;;
49366;SDS011;35245;52.026;8.540;2023-07-28T09:31:09;7.97;;;6.22;;
49366;SDS011;35245;52.026;8.540;2023-07-28T09:33:37;7.90;;;5.75;;
49366;SDS011;35245;52.026;8.540;2023-07-28T09:36:13;10.52;;;6.45;;
49366;SDS011;35245;52.026;8.540;2023-07-28T09:38:41;10.02;;;5.43;;
49366;SDS011;35245;52.026;8.540;2023-07-28T09:41:09;7.57;;;5.20;;
49366;SDS011;35245;52.026;8.540;2023-07-28T09:43:37;8.32;;;4.88;;
49366;SDS011;35245;52.026;8.540;2023-07-28T09:46:08;13.57;;;5.55;;
49366;SDS011;35245;52.026;8.540;2023-07-28T09:48:37;7.72;;;4.68;;
49366;SDS011;35245;52.026;8.540;2023-07-28T09:51:06;6.97;;;4.65;;
49366;SDS011;35245;52.026;8.540;2023-07-28T09:53:44;7.68;;;5.28;;
49366;SDS011;35245;52.026;8.540;2023-07-28T09:56:15;18.38;;;5.90;;
49366;SDS011;35245;52.026;8.540;2023-07-28T09:58:46;7.10;;;4.47;;
49366;SDS011;35245;52.026;8.540;2023-07-28T10:01:19;7.63;;;5.25;;
49366;SDS011;35245;52.026;8.540;2023-07-28T10:03:47;9.00;;;6.15;;
49366;SDS011;35245;52.026;8.540;2023-07-28T10:06:14;8.82;;;6.40;;
49366;SDS011;35245;52.026;8.540;2023-07-28T10:08:42;8.00;;;6.32;;
49366;SDS011;35245;52.026;8.540;2023-07-28T10:11:11;8.75;;;6.60;;
49366;SDS011;35245;52.026;8.540;2023-07-28T10:13:39;6.15;;;5.15;;
49366;SDS011;35245;52.026;8.540;2023-07-28T10:16:08;7.20;;;6.07;;
49366;SDS011;35245;52.026;8.540;2023-07-28T10:18:37;8.65;;;5.78;;
49366;SDS011;35245;52.026;8.540;2023-07-28T10:21:06;8.82;;;6.47;;
49366;SDS011;35245;52.026;8.540;2023-07-28T10:23:38;9.20;;;7.07;;
49366;SDS011;35245;52.026;8.540;2023-07-28T10:26:05;7.97;;;6.07;;
49366;SDS011;35245;52.026;8.540;2023-07-28T10:28:33;7.45;;;6.13;;
49366;SDS011;35245;52.026;8.540;2023-07-28T10:31:04;12.40;;;7.80;;
49366;SDS011;35245;52.026;8.540;2023-07-28T10:33:33;8.40;;;6.85;;
49366;SDS011;35245;52.026;8.540;2023-07-28T10:36:13;10.98;;;7.20;;
49366;SDS011;35245;52.026;8.540;2023-07-28T10:38:42;9.68;;;8.00;;
49366;SDS011;35245;52.026;8.540;2023-07-28T10:41:13;9.20;;;7.40;;
49366;SDS011;35245;52.026;8.540;2023-07-28T10:43:42;12.95;;;7.85;;
49366;SDS011;35245;52.026;8.540;2023-07-28T10:46:15;12.00;;;7.88;;
49366;SDS011;35245;52.026;8.540;2023-07-28T10:48:44;11.57;;;8.35;;
49366;SDS011;35245;52.026;8.540;2023-07-28T10:51:20;9.80;;;7.05;;
49366;SDS011;35245;52.026;8.540;2023-07-28T10:53:50;9.75;;;6.93;;
49366;SDS011;35245;52.026;8.540;2023-07-28T10:56:17;9.73;;;7.78;;
49366;SDS011;35245;52.026;8.540;2023-07-28T10:58:45;9.00;;;7.60;;
49366;SDS011;35245;52.026;8.540;2023-07-28T11:01:14;10.68;;;6.88;;
49366;SDS011;35245;52.026;8.540;2023-07-28T11:03:41;8.55;;;6.53;;
49366;SDS011;35245;52.026;8.540;2023-07-28T11:06:09;8.50;;;6.82;;
49366;SDS011;35245;52.026;8.540;2023-07-28T11:08:37;8.15;;;6.68;;
49366;SDS011;35245;52.026;8.540;2023-07-28T11:11:05;8.45;;;7.28;;
49366;SDS011;35245;52.026;8.540;2023-07-28T11:13:32;8.65;;;6.47;;
49366;SDS011;35245;52.026;8.540;2023-07-28T11:16:00;9.52;;;7.22;;
49366;SDS011;35245;52.026;8.540;2023-07-28T11:18:27;8.50;;;6.50;;
49366;SDS011;35245;52.026;8.540;2023-07-28T11:20:55;8.70;;;6.43;;
49366;SDS011;35245;52.026;8.540;2023-07-28T11:23:22;9.07;;;6.80;;
49366;SDS011;35245;52.026;8.540;2023-07-28T11:25:50;8.68;;;7.40;;
49366;SDS011;35245;52.026;8.540;2023-07-28T11:28:18;8.27;;;6.68;;
49366;SDS011;35245;52.026;8.540;2023-07-28T11:30:46;8.98;;;6.70;;
49366;SDS011;35245;52.026;8.540;2023-07-28T11:33:13;10.60;;;8.05;;
49366;SDS011;35245;52.026;8.540;2023-07-28T11:35:43;8.70;;;7.47;;
49366;SDS011;35245;52.026;8.540;2023-07-28T11:38:11;10.98;;;8.43;;
49366;SDS011;35245;52.026;8.540;2023-07-28T11:40:40;10.15;;;7.55;;
49366;SDS011;35245;52.026;8.540;2023-07-28T11:43:09;9.43;;;7.75;;
49366;SDS011;35245;52.026;8.540;2023-07-28T11:45:37;8.23;;;7.22;;
49366;SDS011;35245;52.026;8.540;2023-07-28T11:48:04;10.52;;;6.93;;
49366;SDS011;35245;52.026;8.540;2023-07-28T11:50:34;9.07;;;7.10;;
49366;SDS011;35245;52.026;8.540;2023-07-28T11:53:03;17.58;;;7.75;;
49366;SDS011;35245;52.026;8.540;2023-07-28T11:55:31;8.63;;;7.65;;
49366;SDS011;35245;52.026;8.540;2023-07-28T11:58:01;12.23;;;6.80;;
49366;SDS011;35245;52.026;8.540;2023-07-28T12:00:32;10.10;;;7.22;;
49366;SDS011;35245;52.026;8.540;2023-07-28T12:03:04;12.05;;;7.20;;
49366;SDS011;35245;52.026;8.540;2023-07-28T12:05:35;9.20;;;7.20;;
49366;SDS011;35245;52.026;8.540;2023-07-28T12:08:02;9.50;;;6.32;;
49366;SDS011;35245;52.026;8.540;2023-07-28T12:10:30;8.15;;;6.18;;
49366;SDS011;35245;52.026;8.540;2023-07-28T12:13:02;7.03;;;6.18;;
49366;SDS011;35245;52.026;8.540;2023-07-28T12:15:32;6.82;;;5.80;;
49366;SDS011;35245;52.026;8.540;2023-07-28T12:18:01;7.15;;;6.45;;
49366;SDS011;35245;52.026;8.540;2023-07-28T12:20:34;6.85;;;5.22;;
49366;SDS011;35245;52.026;8.540;2023-07-28T12:23:03;5.38;;;4.32;;
49366;SDS011;35245;52.026;8.540;2023-07-28T12:25:31;6.93;;;4.60;;
49366;SDS011;35245;52.026;8.540;2023-07-28T12:27:59;5.45;;;4.47;;
49366;SDS011;35245;52.026;8.540;2023-07-28T12:30:26;6.57;;;5.43;;
49366;SDS011;35245;52.026;8.540;2023-07-28T12:32:55;6.07;;;5.47;;
49366;SDS011;35245;52.026;8.540;2023-07-28T12:35:23;6.28;;;5.13;;
49366;SDS011;35245;52.026;8.540;2023-07-28T12:37:54;5.90;;;4.47;;
49366;SDS011;35245;52.026;8.540;2023-07-28T12:40:21;5.90;;;4.28;;
49366;SDS011;35245;52.026;8.540;2023-07-28T12:42:48;4.95;;;4.45;;
49366;SDS011;35245;52.026;8.540;2023-07-28T12:45:16;8.60;;;6.07;;
49366;SDS011;35245;52.026;8.540;2023-07-28T12:47:43;6.15;;;5.10;;
49366;SDS011;35245;52.026;8.540;2023-07-28T12:50:11;6.72;;;5.00;;
49366;SDS011;35245;52.026;8.540;2023-07-28T12:52:38;7.32;;;4.57;;
49366;SDS011;35245;52.026;8.540;2023-07-28T12:55:07;4.78;;;4.25;;
49366;SDS011;35245;52.026;8.540;2023-07-28T12:57:34;7.20;;;4.68;;
49366;SDS011;35245;52.026;8.540;2023-07-28T13:00:01;7.13;;;4.68;;
49366;SDS011;35245;52.026;8.540;2023-07-28T13:02:37;4.57;;;3.83;;
49366;SDS011;35245;52.026;8.540;2023-07-28T13:05:05;4.50;;;3.72;;
49366;SDS011;35245;52.026;8.540;2023-07-28T13:07:36;5.95;;;4.70;;
49366;SDS011;35245;52.026;8.540;2023-07-28T13:10:05;6.95;;;4.07;;
49366;SDS011;35245;52.026;8.540;2023-07-28T13:12:35;4.20;;;3.38;;
49366;SDS011;35245;52.026;8.540;2023-07-28T13:15:02;5.05;;;3.45;;
49366;SDS011;35245;52.026;8.540;2023-07-28T13:17:30;6.25;;;3.95;;
49366;SDS011;35245;52.026;8.540;2023-07-28T13:19:57;4.20;;;3.80;;
49366;SDS011;35245;52.026;8.540;2023-07-28T13:22:25;4.97;;;3.72;;
49366;SDS011;35245;52.026;8.540;2023-07-28T13:24:53;4.28;;;3.88;;
49366;SDS011;35245;52.026;8.540;2023-07-28T13:27:21;5.07;;;3.97;;
49366;SDS011;35245;52.026;8.540;2023-07-28T13:29:48;3.85;;;3.50;;
49366;SDS011;35245;52.026;8.540;2023-07-28T13:32:16;4.13;;;3.83;;
49366;SDS011;35245;52.026;8.540;2023-07-28T13:34:45;3.47;;;3.17;;
49366;SDS011;35245;52.026;8.540;2023-07-28T13:37:12;4.35;;;3.70;;
49366;SDS011;35245;52.026;8.540;2023-07-28T13:39:39;4.10;;;3.33;;
49366;SDS011;35245;52.026;8.540;2023-07-28T13:42:08;5.80;;;3.95;;
49366;SDS011;35245;52.026;8.540;2023-07-28T13:44:37;4.82;;;3.05;;
49366;SDS011;35245;52.026;8.540;2023-07-28T13:47:04;3.97;;;3.50;;
49366;SDS011;35245;52.026;8.540;2023-07-28T13:49:31;26.73;;;24.45;;
49366;SDS011;35245;52.026;8.540;2023-07-28T13:52:00;4.72;;;4.05;;
49366;SDS011;35245;52.026;8.540;2023-07-28T13:54:28;5.88;;;4.20;;
49366;SDS011;35245;52.026;8.540;2023-07-28T13:56:55;5.35;;;4.30;;
49366;SDS011;35245;52.026;8.540;2023-07-28T13:59:23;7.22;;;4.57;;
49366;SDS011;35245;52.026;8.540;2023-07-28T14:01:50;4.13;;;3.70;;
49366;SDS011;35245;52.026;8.540;2023-07-28T14:04:18;4.60;;;3.50;;
49366;SDS011;35245;52.026;8.540;2023-07-28T14:06:45;3.30;;;3.00;;
49366;SDS011;35245;52.026;8.540;2023-07-28T14:09:12;5.40;;;3.65;;
49366;SDS011;35245;52.026;8.540;2023-07-28T14:11:39;4.60;;;3.88;;
49366;SDS011;35245;52.026;8.540;2023-07-28T14:14:06;4.95;;;3.47;;
49366;SDS011;35245;52.026;8.540;2023-07-28T14:16:34;3.97;;;3.63;;
49366;SDS011;35245;52.026;8.540;2023-07-28T14:19:02;3.72;;;3.42;;
49366;SDS011;35245;52.026;8.540;2023-07-28T14:21:29;4.38;;;3.83;;
49366;SDS011;35245;52.026;8.540;2023-07-28T14:23:57;3.40;;;3.10;;
49366;SDS011;35245;52.026;8.540;2023-07-28T14:26:24;3.70;;;3.40;;
49366;SDS011;35245;52.026;8.540;2023-07-28T14:28:51;3.33;;;3.03;;
49366;SDS011;35245;52.026;8.540;2023-07-28T14:31:18;4.28;;;3.38;;
49366;SDS011;35245;52.026;8.540;2023-07-28T14:33:47;5.07;;;3.20;;
49366;SDS011;35245;52.026;8.540;2023-07-28T14:36:15;3.22;;;3.00;;
49366;SDS011;35245;52.026;8.540;2023-07-28T14:38:42;4.22;;;3.45;;